createdAt,value
2023-03-02T00:01:43.734Z,10.73
2023-03-02T00:04:16.162Z,11.40
2023-03-02T00:06:43.219Z,12.43
2023-03-02T00:09:09.843Z,10.87
2023-03-02T00:11:38.026Z,9.90
2023-03-02T00:14:05.417Z,10.30
2023-03-02T00:16:32.505Z,9.90
2023-03-02T00:18:59.261Z,9.73
2023-03-02T00:21:25.921Z,9.20
2023-03-02T00:23:53.086Z,9.63
2023-03-02T00:26:20.133Z,9.73
2023-03-02T00:28:47.026Z,9.60
2023-03-02T00:31:13.795Z,10.00
2023-03-02T00:33:40.510Z,10.93
2023-03-02T00:36:14.150Z,8.67
2023-03-02T00:38:40.742Z,11.40
2023-03-02T00:41:07.318Z,8.10
2023-03-02T00:43:33.922Z,10.03
2023-03-02T00:46:08.073Z,9.10
2023-03-02T00:48:34.706Z,9.10
2023-03-02T00:51:01.580Z,8.83
2023-03-02T00:53:28.184Z,8.60
2023-03-02T00:55:55.352Z,8.13
2023-03-02T00:58:22.488Z,8.97
2023-03-02T01:00:49.205Z,8.20
2023-03-02T01:03:15.899Z,8.13
2023-03-02T01:05:42.504Z,8.30
2023-03-02T01:08:09.086Z,9.83
2023-03-02T01:10:36.010Z,7.90
2023-03-02T01:13:02.676Z,10.30
2023-03-02T01:15:29.283Z,7.30
2023-03-02T01:17:55.868Z,10.43
2023-03-02T01:20:22.486Z,7.50
2023-03-02T01:22:49.119Z,8.37
2023-03-02T01:25:15.776Z,7.20
2023-03-02T01:27:42.366Z,8.50
2023-03-02T01:30:09.819Z,8.50
2023-03-02T01:32:36.451Z,8.00
2023-03-02T01:35:03.321Z,8.13
2023-03-02T01:37:29.923Z,8.33
2023-03-02T01:39:56.579Z,9.03
2023-03-02T01:42:23.640Z,9.20
2023-03-02T01:44:56.955Z,8.90
2023-03-02T01:47:32.202Z,8.47
2023-03-02T01:50:02.783Z,11.20
2023-03-02T01:52:32.471Z,8.70
2023-03-02T01:55:03.327Z,8.33
2023-03-02T01:57:32.887Z,7.63
2023-03-02T02:00:08.494Z,7.73
2023-03-02T02:02:36.438Z,6.40
2023-03-02T02:05:04.072Z,7.10
2023-03-02T02:07:31.185Z,6.80
2023-03-02T02:09:58.016Z,7.53
2023-03-02T02:12:24.658Z,6.60
2023-03-02T02:14:51.735Z,8.90
2023-03-02T02:17:19.591Z,6.57
2023-03-02T02:20:09.669Z,6.53
2023-03-02T02:23:08.441Z,7.20
2023-03-02T02:25:58.350Z,6.70
2023-03-02T02:28:58.636Z,7.13
2023-03-02T02:31:48.348Z,6.80
2023-03-02T02:34:22.527Z,7.50
2023-03-02T02:36:53.997Z,8.13
2023-03-02T02:39:26.456Z,7.40
2023-03-02T02:41:57.577Z,6.33
2023-03-02T02:44:24.297Z,6.17
2023-03-02T02:46:50.985Z,6.23
2023-03-02T02:49:31.357Z,7.20
2023-03-02T02:51:59.236Z,7.47
2023-03-02T02:54:27.646Z,7.00
2023-03-02T02:56:55.006Z,6.80
2023-03-02T02:59:29.058Z,7.90
2023-03-02T03:01:56.451Z,7.50
2023-03-02T03:04:28.243Z,7.80
2023-03-02T03:07:04.012Z,7.87
2023-03-02T03:09:31.683Z,7.57
2023-03-02T03:12:03.857Z,9.00
2023-03-02T03:14:39.616Z,7.87
2023-03-02T03:17:11.931Z,9.47
2023-03-02T03:19:41.537Z,7.93
2023-03-02T03:22:11.842Z,9.57
2023-03-02T03:24:40.036Z,7.77
2023-03-02T03:27:08.668Z,6.77
2023-03-02T03:29:37.325Z,8.03
2023-03-02T03:32:05.366Z,8.20
2023-03-02T03:34:32.396Z,7.40
2023-03-02T03:37:02.093Z,7.30
2023-03-02T03:39:30.160Z,7.77
2023-03-02T03:41:56.900Z,8.00
2023-03-02T03:44:23.893Z,7.47
2023-03-02T03:46:50.745Z,7.40
2023-03-02T03:49:17.866Z,7.10
2023-03-02T03:51:44.563Z,7.20
2023-03-02T03:54:11.418Z,7.73
2023-03-02T03:56:45.007Z,7.50
2023-03-02T03:59:16.138Z,7.53
2023-03-02T04:01:46.913Z,7.77
2023-03-02T04:04:17.510Z,7.40
2023-03-02T04:06:44.826Z,6.83
2023-03-02T04:09:12.777Z,8.27
2023-03-02T04:11:42.057Z,6.97
2023-03-02T04:14:09.064Z,6.70
2023-03-02T04:16:36.806Z,7.00
2023-03-02T04:19:10.705Z,8.60
2023-03-02T04:21:45.004Z,8.27
2023-03-02T04:24:12.515Z,7.40
2023-03-02T04:26:41.599Z,7.90
2023-03-02T04:29:09.454Z,8.10
2023-03-02T04:31:36.367Z,7.40
2023-03-02T04:34:06.335Z,8.00
2023-03-02T04:36:35.963Z,8.00
2023-03-02T04:39:04.722Z,9.30
2023-03-02T04:41:31.567Z,7.97
2023-03-02T04:43:58.208Z,9.23
2023-03-02T04:46:27.006Z,8.87
2023-03-02T04:48:54.405Z,8.47
2023-03-02T04:51:27.798Z,8.43
2023-03-02T04:53:56.918Z,9.77
2023-03-02T04:56:24.167Z,8.20
2023-03-02T04:58:51.174Z,9.07
2023-03-02T05:01:19.788Z,9.17
2023-03-02T05:03:47.361Z,8.07
2023-03-02T05:06:15.080Z,8.73
2023-03-02T05:08:41.815Z,7.10
2023-03-02T05:11:10.385Z,8.17
2023-03-02T05:13:37.020Z,8.80
2023-03-02T05:16:04.218Z,8.00
2023-03-02T05:18:31.389Z,7.97
2023-03-02T05:20:58.021Z,8.10
2023-03-02T05:23:25.644Z,8.17
2023-03-02T05:25:53.796Z,7.27
2023-03-02T05:28:21.608Z,9.30
2023-03-02T05:30:48.827Z,9.37
2023-03-02T05:33:16.164Z,7.90
2023-03-02T05:35:43.231Z,8.90
2023-03-02T05:38:09.968Z,8.37
2023-03-02T05:40:36.712Z,9.93
2023-03-02T05:43:03.820Z,9.40
2023-03-02T05:45:36.626Z,8.50
2023-03-02T05:48:03.537Z,9.07
2023-03-02T05:50:30.334Z,8.47
2023-03-02T05:52:58.335Z,9.20
2023-03-02T05:55:24.951Z,9.07
2023-03-02T05:57:51.670Z,8.90
2023-03-02T06:00:19.390Z,9.33
2023-03-02T06:02:46.133Z,8.70
2023-03-02T06:05:16.590Z,9.83
2023-03-02T06:07:44.207Z,9.43
2023-03-02T06:10:12.379Z,10.03
2023-03-02T06:12:39.115Z,9.03
2023-03-02T06:15:07.040Z,10.40
2023-03-02T06:17:34.245Z,9.77
2023-03-02T06:20:00.910Z,9.20
2023-03-02T06:22:27.530Z,9.57
2023-03-02T06:24:55.274Z,10.23
2023-03-02T06:27:22.046Z,11.33
2023-03-02T06:29:48.980Z,9.10
2023-03-02T06:32:15.950Z,10.20
2023-03-02T06:34:42.759Z,11.50
2023-03-02T06:37:09.553Z,10.70
2023-03-02T06:39:36.273Z,9.70
2023-03-02T06:42:02.983Z,10.37
2023-03-02T06:44:29.720Z,11.10
2023-03-02T06:46:56.476Z,10.13
2023-03-02T06:49:24.484Z,11.00
2023-03-02T06:51:51.127Z,9.97
2023-03-02T06:54:17.852Z,10.80
2023-03-02T06:56:44.685Z,10.97
2023-03-02T06:59:11.369Z,12.40
2023-03-02T07:01:38.135Z,11.07
2023-03-02T07:04:05.136Z,9.70
2023-03-02T07:06:31.835Z,11.63
2023-03-02T07:08:58.406Z,11.30
2023-03-02T07:11:25.161Z,10.17
2023-03-02T07:13:52.036Z,10.60
2023-03-02T07:16:18.924Z,10.10
2023-03-02T07:18:45.668Z,10.10
2023-03-02T07:21:12.317Z,9.87
2023-03-02T07:23:38.977Z,10.10
2023-03-02T07:26:08.415Z,9.93
2023-03-02T07:28:37.000Z,9.60
2023-03-02T07:31:03.884Z,9.50
2023-03-02T07:33:30.683Z,10.10
2023-03-02T07:35:57.523Z,10.30
2023-03-02T07:38:24.197Z,10.10
2023-03-02T07:40:51.726Z,9.53
2023-03-02T07:43:18.396Z,11.30
2023-03-02T07:45:45.450Z,11.83
2023-03-02T07:48:12.255Z,11.23
2023-03-02T07:50:38.905Z,11.27
2023-03-02T07:53:05.568Z,10.33
2023-03-02T07:55:32.324Z,10.70
2023-03-02T07:57:58.921Z,11.70
2023-03-02T08:00:25.769Z,11.20
2023-03-02T08:02:52.424Z,10.57
2023-03-02T08:05:19.125Z,9.57
2023-03-02T08:07:46.896Z,12.30
2023-03-02T08:10:13.545Z,10.90
2023-03-02T08:12:40.518Z,11.60
2023-03-02T08:15:07.682Z,10.80
2023-03-02T08:17:34.317Z,12.80
2023-03-02T08:20:01.027Z,11.07
2023-03-02T08:22:27.671Z,11.50
2023-03-02T08:24:54.277Z,10.87
2023-03-02T08:27:20.881Z,12.23
2023-03-02T08:29:47.504Z,10.63
2023-03-02T08:32:14.198Z,10.83
2023-03-02T08:34:40.944Z,11.37
2023-03-02T08:37:07.728Z,10.73
2023-03-02T08:39:34.360Z,10.63
2023-03-02T08:42:01.227Z,10.77
2023-03-02T08:44:27.784Z,11.10
2023-03-02T08:46:55.061Z,11.20
2023-03-02T08:49:22.050Z,11.03
2023-03-02T08:51:53.348Z,10.40
2023-03-02T08:54:20.849Z,11.47
2023-03-02T08:56:48.760Z,11.10
2023-03-02T08:59:15.845Z,10.23
2023-03-02T09:01:42.846Z,9.90
2023-03-02T09:04:11.115Z,10.93
2023-03-02T09:06:40.923Z,10.60
2023-03-02T09:09:09.571Z,9.07
2023-03-02T09:11:36.713Z,9.77
2023-03-02T09:14:03.710Z,10.63
2023-03-02T09:16:30.973Z,10.40
2023-03-02T09:18:58.074Z,11.23
2023-03-02T09:21:24.767Z,10.57
2023-03-02T09:23:55.772Z,9.73
2023-03-02T09:26:22.843Z,10.00
2023-03-02T09:28:49.509Z,10.13
2023-03-02T09:31:16.276Z,11.77
2023-03-02T09:33:42.930Z,9.63
2023-03-02T09:36:11.601Z,10.90
2023-03-02T09:38:38.505Z,9.97
2023-03-02T09:41:20.481Z,9.63
2023-03-02T09:44:09.828Z,10.27
2023-03-02T09:46:45.928Z,11.67
2023-03-02T09:49:32.732Z,10.20
2023-03-02T09:52:32.049Z,10.60
2023-03-02T09:55:32.449Z,9.60
2023-03-02T09:58:02.440Z,10.87
2023-03-02T10:00:36.730Z,10.37
2023-03-02T10:03:16.643Z,11.13
2023-03-02T10:05:47.720Z,10.50
2023-03-02T10:08:18.230Z,9.60
2023-03-02T10:10:49.200Z,10.63
2023-03-02T10:13:37.155Z,10.03
2023-03-02T10:16:21.537Z,8.80
2023-03-02T10:19:18.618Z,9.60
2023-03-02T10:21:56.381Z,9.30
2023-03-02T10:24:38.152Z,8.87
2023-03-02T10:27:17.900Z,9.70
2023-03-02T10:30:03.119Z,9.60
2023-03-02T10:32:37.769Z,9.93
2023-03-02T10:35:16.114Z,8.43
2023-03-02T10:37:42.892Z,9.90
2023-03-02T10:40:43.558Z,8.80
2023-03-02T10:43:31.998Z,9.47
2023-03-02T10:46:05.089Z,10.57
2023-03-02T10:48:31.891Z,9.07
2023-03-02T10:51:00.340Z,9.30
2023-03-02T10:53:27.176Z,11.00
2023-03-02T10:55:54.305Z,9.43
2023-03-02T10:58:32.718Z,10.60
2023-03-02T11:01:18.237Z,12.77
2023-03-02T11:04:01.746Z,9.77
2023-03-02T11:06:30.001Z,10.20
2023-03-02T11:09:00.505Z,9.23
2023-03-02T11:11:27.450Z,9.80
2023-03-02T11:13:56.362Z,10.30
2023-03-02T11:16:28.438Z,9.07
2023-03-02T11:18:57.874Z,10.03
2023-03-02T11:21:55.434Z,10.27
2023-03-02T11:24:33.233Z,10.00
2023-03-02T11:27:13.810Z,9.57
2023-03-02T11:30:00.798Z,9.07
2023-03-02T11:32:52.645Z,9.07
2023-03-02T11:35:28.621Z,8.43
2023-03-02T11:37:59.555Z,8.90
2023-03-02T11:40:50.178Z,7.67
2023-03-02T11:43:16.851Z,8.60
2023-03-02T11:45:58.820Z,8.53
2023-03-02T11:48:49.081Z,8.77
2023-03-02T11:51:24.415Z,8.63
2023-03-02T11:54:02.677Z,9.20
2023-03-02T11:56:36.612Z,8.37
2023-03-02T11:59:11.245Z,8.23
2023-03-02T12:01:40.316Z,7.53
2023-03-02T12:04:09.879Z,8.83
2023-03-02T12:06:41.999Z,9.07
2023-03-02T12:09:23.704Z,7.60
2023-03-02T12:12:18.502Z,9.03
2023-03-02T12:14:45.193Z,9.33
2023-03-02T12:17:22.350Z,8.73
2023-03-02T12:19:50.783Z,8.30
2023-03-02T12:22:28.062Z,8.00
2023-03-02T12:25:06.978Z,7.93
2023-03-02T12:27:38.135Z,7.10
2023-03-02T12:30:16.911Z,8.10
2023-03-02T12:33:00.847Z,8.40
2023-03-02T12:35:30.347Z,8.77
2023-03-02T12:38:00.767Z,12.17
2023-03-02T12:40:51.234Z,8.27
2023-03-02T12:43:31.081Z,9.30
2023-03-02T12:46:25.944Z,9.73
2023-03-02T12:48:58.188Z,7.13
2023-03-02T12:51:27.342Z,7.80
2023-03-02T12:54:12.393Z,8.87
2023-03-02T12:56:39.231Z,8.03
2023-03-02T12:59:06.221Z,7.30
2023-03-02T13:01:34.207Z,8.70
2023-03-02T13:04:00.867Z,8.73
2023-03-02T13:06:31.658Z,8.27
2023-03-02T13:09:00.388Z,7.40
2023-03-02T13:11:31.266Z,7.60
2023-03-02T13:13:59.356Z,9.20
2023-03-02T13:16:29.660Z,7.73
2023-03-02T13:18:59.357Z,8.33
2023-03-02T13:24:46.041Z,8.40
2023-03-02T13:27:18.992Z,6.60
2023-03-02T13:29:45.814Z,7.73
2023-03-02T13:32:23.000Z,7.60
2023-03-02T13:34:58.730Z,7.57
2023-03-02T13:37:43.445Z,7.00
2023-03-02T13:40:22.505Z,6.43
2023-03-02T13:42:49.226Z,6.90
2023-03-02T13:45:23.868Z,6.57
2023-03-02T13:47:50.615Z,6.40
2023-03-02T13:50:22.819Z,7.07
2023-03-02T13:52:50.178Z,6.87
2023-03-02T13:55:19.012Z,6.50
2023-03-02T13:57:47.027Z,5.87
2023-03-02T14:00:16.992Z,6.60
2023-03-02T14:02:43.887Z,6.73
2023-03-02T14:05:17.790Z,6.23
2023-03-02T14:07:44.671Z,6.57
2023-03-02T14:10:11.814Z,5.50
2023-03-02T14:12:41.126Z,6.20
2023-03-02T14:15:10.731Z,6.00
2023-03-02T14:17:37.384Z,6.43
2023-03-02T14:20:04.351Z,5.80
2023-03-02T14:22:31.957Z,4.93
2023-03-02T14:24:58.665Z,5.60
2023-03-02T14:27:29.724Z,4.43
2023-03-02T14:29:56.564Z,4.93
2023-03-02T14:32:23.225Z,5.00
2023-03-02T14:34:49.911Z,5.17
2023-03-02T14:37:23.682Z,5.27
2023-03-02T14:39:54.183Z,5.00
2023-03-02T14:42:22.238Z,4.47
2023-03-02T14:44:50.590Z,5.03
2023-03-02T14:47:19.370Z,4.50
2023-03-02T14:49:46.173Z,4.90
2023-03-02T14:52:38.128Z,5.33
2023-03-02T14:55:15.256Z,5.47
2023-03-02T14:57:41.882Z,4.57
2023-03-02T15:00:13.864Z,5.30
2023-03-02T15:02:41.053Z,4.80
2023-03-02T15:05:08.219Z,5.67
2023-03-02T15:07:34.851Z,5.37
2023-03-02T15:10:01.476Z,4.97
2023-03-02T15:12:28.245Z,5.50
2023-03-02T15:14:54.931Z,5.00
2023-03-02T15:17:21.618Z,4.90
2023-03-02T15:19:48.497Z,5.00
2023-03-02T15:22:15.711Z,4.47
2023-03-02T15:24:42.336Z,5.30
2023-03-02T15:27:08.963Z,4.10
2023-03-02T15:29:35.652Z,5.13
2023-03-02T15:32:02.380Z,4.60
2023-03-02T15:34:29.044Z,5.00
2023-03-02T15:36:55.681Z,5.60
2023-03-02T15:39:22.356Z,4.77
2023-03-02T15:41:48.993Z,5.20
2023-03-02T15:44:22.242Z,5.03
2023-03-02T15:46:50.428Z,5.40
2023-03-02T15:49:21.079Z,5.03
2023-03-02T15:51:47.655Z,5.90
2023-03-02T15:54:15.304Z,5.20
2023-03-02T15:56:44.383Z,4.93
2023-03-02T15:59:12.017Z,4.97
2023-03-02T16:01:38.635Z,4.60
2023-03-02T16:04:05.261Z,5.80
2023-03-02T16:06:31.884Z,5.10
2023-03-02T16:08:58.561Z,5.57
2023-03-02T16:11:25.217Z,4.70
2023-03-02T16:13:52.285Z,5.13
2023-03-02T16:16:20.541Z,5.23
2023-03-02T16:18:55.835Z,5.80
2023-03-02T16:21:23.606Z,4.30
2023-03-02T16:23:51.094Z,5.53
2023-03-02T16:26:19.506Z,4.37
2023-03-02T16:28:46.357Z,5.57
2023-03-02T16:31:17.452Z,5.70
2023-03-02T16:33:44.781Z,4.93
2023-03-02T16:36:12.161Z,5.10
2023-03-02T16:38:38.979Z,6.03
2023-03-02T16:41:15.990Z,4.67
2023-03-02T16:43:51.680Z,4.87
2023-03-02T16:46:19.288Z,5.10
2023-03-02T16:48:47.560Z,4.80
2023-03-02T16:51:14.602Z,5.10
2023-03-02T16:53:41.338Z,5.30
2023-03-02T16:56:10.026Z,4.73
2023-03-02T16:58:38.321Z,6.07
2023-03-02T17:01:06.325Z,6.80
2023-03-02T17:03:34.014Z,6.67
2023-03-02T17:06:01.434Z,6.00
2023-03-02T17:08:28.158Z,6.10
2023-03-02T17:10:54.845Z,6.23
2023-03-02T17:13:21.483Z,7.20
2023-03-02T17:15:48.228Z,6.67
2023-03-02T17:18:14.911Z,7.60
2023-03-02T17:20:41.754Z,6.37
2023-03-02T17:23:08.516Z,7.77
2023-03-02T17:25:35.129Z,6.33
2023-03-02T17:28:01.716Z,6.43
2023-03-02T17:30:28.756Z,7.37
2023-03-02T17:32:55.503Z,7.20
2023-03-02T17:35:22.580Z,7.07
2023-03-02T17:37:49.212Z,6.87
2023-03-02T17:40:18.821Z,8.10
2023-03-02T17:42:45.513Z,7.70
2023-03-02T17:45:24.824Z,7.10
2023-03-02T17:47:53.530Z,8.17
2023-03-02T17:50:21.852Z,8.43
2023-03-02T17:52:48.715Z,8.90
2023-03-02T17:55:15.919Z,8.63
2023-03-02T17:57:43.014Z,8.77
2023-03-02T18:00:14.037Z,8.20
2023-03-02T18:02:40.889Z,9.70
2023-03-02T18:05:10.007Z,8.47
2023-03-02T18:07:37.195Z,8.73
2023-03-02T18:10:05.046Z,9.07
2023-03-02T18:12:31.913Z,9.07
2023-03-02T18:14:58.517Z,8.37
2023-03-02T18:17:25.410Z,8.23
2023-03-02T18:19:52.263Z,9.90
2023-03-02T18:22:19.786Z,9.53
2023-03-02T18:24:47.487Z,8.97
2023-03-02T18:27:14.229Z,8.13
2023-03-02T18:29:40.846Z,8.13
2023-03-02T18:32:07.628Z,9.70
2023-03-02T18:34:34.290Z,9.37
2023-03-02T18:37:00.896Z,10.20
2023-03-02T18:39:27.538Z,9.27
2023-03-02T18:41:54.177Z,9.43
2023-03-02T18:44:20.904Z,9.33
2023-03-02T18:46:47.643Z,9.80
2023-03-02T18:49:14.267Z,10.50
2023-03-02T18:51:40.886Z,11.07
2023-03-02T18:54:07.620Z,10.13
2023-03-02T18:56:34.321Z,21.97
2023-03-02T18:59:01.128Z,14.43
2023-03-02T19:01:31.366Z,10.40
2023-03-02T19:03:59.227Z,9.60
2023-03-02T19:06:26.052Z,10.70
2023-03-02T19:08:52.695Z,8.80
2023-03-02T19:11:19.304Z,9.40
2023-03-02T19:13:46.403Z,9.87
2023-03-02T19:16:14.073Z,10.30
2023-03-02T19:18:40.837Z,14.87
2023-03-02T19:21:07.965Z,12.40
2023-03-02T19:23:34.937Z,11.50
2023-03-02T19:26:01.681Z,10.60
2023-03-02T19:28:28.292Z,8.80
2023-03-02T19:30:54.959Z,9.90
2023-03-02T19:33:24.647Z,8.80
2023-03-02T19:35:51.424Z,10.13
2023-03-02T19:38:19.107Z,9.67
2023-03-02T19:40:45.708Z,10.70
2023-03-02T19:43:12.345Z,9.80
2023-03-02T19:45:38.948Z,9.03
2023-03-02T19:48:06.116Z,10.53
2023-03-02T19:50:33.102Z,10.63
2023-03-02T19:52:59.859Z,11.30
2023-03-02T19:55:27.047Z,9.83
2023-03-02T19:58:00.175Z,10.40
2023-03-02T20:00:29.182Z,10.43
2023-03-02T20:02:57.568Z,11.50
2023-03-02T20:05:26.038Z,9.80
2023-03-02T20:07:53.250Z,10.33
2023-03-02T20:10:31.043Z,10.03
2023-03-02T20:12:59.548Z,9.67
2023-03-02T20:15:30.462Z,10.47
2023-03-02T20:17:59.419Z,9.73
2023-03-02T20:20:27.014Z,10.07
2023-03-02T20:22:53.831Z,33.87
2023-03-02T20:25:21.662Z,37.80
2023-03-02T20:27:49.271Z,78.77
2023-03-02T20:30:20.747Z,19.00
2023-03-02T20:32:47.501Z,13.80
2023-03-02T20:35:14.255Z,11.53
2023-03-02T20:37:41.495Z,12.23
2023-03-02T20:40:09.445Z,11.37
2023-03-02T20:42:36.150Z,10.27
2023-03-02T20:45:04.458Z,11.07
2023-03-02T20:47:31.360Z,12.00
2023-03-02T20:49:58.264Z,10.63
2023-03-02T20:52:25.165Z,13.70
2023-03-02T20:54:51.829Z,11.87
2023-03-02T20:57:20.977Z,13.37
2023-03-02T20:59:48.250Z,11.80
2023-03-02T21:02:17.860Z,12.30
2023-03-02T21:04:44.916Z,12.63
2023-03-02T21:07:12.082Z,13.00
2023-03-02T21:09:38.995Z,13.07
2023-03-02T21:12:08.651Z,12.73
2023-03-02T21:14:35.755Z,12.37
2023-03-02T21:17:03.688Z,11.70
2023-03-02T21:19:30.875Z,13.60
2023-03-02T21:21:57.608Z,12.63
2023-03-02T21:24:24.547Z,13.37
2023-03-02T21:26:53.547Z,12.50
2023-03-02T21:29:22.375Z,13.20
2023-03-02T21:31:49.256Z,12.83
2023-03-02T21:34:16.438Z,15.60
2023-03-02T21:36:43.097Z,13.60
2023-03-02T21:39:10.024Z,12.70
2023-03-02T21:41:36.783Z,13.70
2023-03-02T21:44:05.642Z,13.00
2023-03-02T21:46:33.668Z,12.33
2023-03-02T21:49:00.334Z,14.50
2023-03-02T21:51:26.951Z,14.10
2023-03-02T21:53:53.635Z,13.90
2023-03-02T21:56:24.084Z,13.10
2023-03-02T21:58:52.962Z,14.63
2023-03-02T22:01:20.842Z,12.93
2023-03-02T22:03:47.948Z,13.33
2023-03-02T22:06:20.605Z,12.87
2023-03-02T22:08:47.506Z,12.33
2023-03-02T22:11:22.522Z,13.87
2023-03-02T22:13:50.839Z,13.63
2023-03-02T22:16:23.456Z,14.20
2023-03-02T22:18:55.112Z,14.47
2023-03-02T22:21:28.323Z,13.93
2023-03-02T22:24:10.720Z,19.30
2023-03-02T22:26:41.187Z,18.10
2023-03-02T22:29:17.444Z,14.83
2023-03-02T22:31:49.470Z,16.87
2023-03-02T22:34:25.346Z,17.07
2023-03-02T22:36:56.608Z,15.43
2023-03-02T22:39:32.520Z,16.00
2023-03-02T22:42:12.125Z,17.87
2023-03-02T22:44:39.036Z,16.70
2023-03-02T22:47:20.259Z,16.00
2023-03-02T22:49:52.806Z,17.90
2023-03-02T22:52:23.928Z,16.83
2023-03-02T22:54:51.052Z,17.80
2023-03-02T22:57:27.729Z,17.60
2023-03-02T23:00:20.159Z,16.70
2023-03-02T23:02:46.765Z,17.97
2023-03-02T23:05:29.539Z,19.50
2023-03-02T23:08:20.961Z,17.40
2023-03-02T23:10:47.968Z,17.43
2023-03-02T23:13:17.597Z,16.90
2023-03-02T23:15:46.635Z,17.23
2023-03-02T23:18:26.606Z,18.27
2023-03-02T23:20:53.445Z,15.43
2023-03-02T23:23:22.603Z,16.47
2023-03-02T23:25:49.333Z,16.63
2023-03-02T23:28:16.423Z,18.03
2023-03-02T23:30:43.232Z,17.00
2023-03-02T23:33:09.835Z,17.90
2023-03-02T23:35:36.504Z,17.17
2023-03-02T23:38:03.189Z,16.80
2023-03-02T23:40:29.804Z,17.40
2023-03-02T23:42:56.393Z,18.13
2023-03-02T23:45:23.155Z,19.20
2023-03-02T23:47:49.792Z,17.50
2023-03-02T23:50:16.456Z,18.70
2023-03-02T23:52:43.197Z,17.20
2023-03-02T23:55:10.451Z,18.73
2023-03-02T23:57:37.101Z,17.63
